Gibbon, Nebraska
Current Conditions -  °F | °C
As of 12:15 AM on Monday 22 Dec 2014 (Local Time) from KEAR Reporting Station
Overcast Overcast  
Wind Chill: 30°   Ceiling: 800
Heat Index: 39°   Visibility: 7mi
Dew Point: 37°   Wind: 16mph
Humidity: 93%   Direction: 160°SSE
Pressure: 29.51"   Gusts: NA
Location:  40.75°N, 98.84°W
Report Text: KEAR 220615Z 16014KT 7SM OVC008 04/03 A2951 RMK AO1
Loading
Personal Weather Stations






























Interactive Weather Map New forecast layout! Learn more

10-Day Weather Forecast

Advertisements
Track Severe Weather on mobile